createdAt,value
2023-02-19T00:01:04.240Z,11.39
2023-02-19T00:11:08.409Z,11.43
2023-02-19T00:21:13.044Z,11.43
2023-02-19T00:31:32.649Z,11.48
2023-02-19T00:41:37.025Z,11.43
2023-02-19T00:51:39.605Z,11.46
2023-02-19T01:01:47.428Z,11.44
2023-02-19T01:11:49.978Z,11.48
2023-02-19T01:21:54.094Z,11.44
2023-02-19T01:32:00.485Z,11.48
2023-02-19T01:42:05.268Z,11.46
2023-02-19T01:52:18.501Z,11.40
2023-02-19T02:02:22.488Z,11.37
2023-02-19T02:12:24.979Z,11.28
2023-02-19T02:22:30.425Z,11.38
2023-02-19T02:32:53.240Z,11.29
2023-02-19T02:43:10.724Z,11.15
2023-02-19T02:53:34.619Z,11.14
2023-02-19T03:03:40.412Z,11.04
2023-02-19T03:14:01.894Z,10.99
2023-02-19T03:24:22.436Z,10.89
2023-02-19T03:34:27.912Z,10.87
2023-02-19T03:44:45.438Z,10.73
2023-02-19T03:54:53.938Z,10.64
2023-02-19T04:05:01.576Z,10.62
2023-02-19T04:15:20.635Z,10.68
2023-02-19T04:25:30.347Z,10.49
2023-02-19T04:35:32.971Z,10.51
2023-02-19T04:45:41.136Z,10.51
2023-02-19T04:55:43.658Z,10.38
2023-02-19T05:05:47.820Z,10.36
2023-02-19T05:15:57.763Z,10.43
2023-02-19T05:26:05.044Z,10.32
2023-02-19T05:36:11.594Z,10.25
2023-02-19T05:46:16.196Z,10.32
2023-02-19T05:56:33.875Z,10.27
2023-02-19T06:06:38.052Z,10.24
2023-02-19T06:16:40.596Z,10.17
2023-02-19T06:26:44.477Z,10.15
2023-02-19T06:36:47.405Z,10.20
2023-02-19T06:46:51.537Z,10.19
2023-02-19T06:56:54.176Z,10.21
2023-02-19T07:06:58.033Z,9.93
2023-02-19T07:17:00.556Z,9.98
2023-02-19T07:27:04.556Z,10.13
2023-02-19T07:37:07.092Z,10.04
2023-02-19T07:47:10.980Z,9.94
2023-02-19T07:57:14.446Z,10.05
2023-02-19T08:07:18.314Z,10.14
2023-02-19T08:17:20.949Z,10.04
2023-02-19T08:27:24.933Z,9.91
2023-02-19T08:37:31.757Z,10.00
2023-02-19T08:47:49.199Z,10.00
2023-02-19T08:57:53.323Z,9.99
2023-02-19T09:07:55.972Z,10.10
2023-02-19T09:17:59.857Z,10.01
2023-02-19T09:28:02.367Z,10.10
2023-02-19T09:38:06.228Z,9.94
2023-02-19T09:48:17.449Z,10.24
2023-02-19T09:58:27.037Z,10.23
2023-02-19T10:08:32.220Z,10.16
2023-02-19T10:18:45.093Z,10.19
2023-02-19T10:28:47.569Z,10.20
2023-02-19T10:38:51.643Z,10.08
2023-02-19T10:48:55.457Z,10.16
2023-02-19T10:59:14.787Z,10.28
2023-02-19T11:09:25.372Z,10.30
2023-02-19T11:19:36.505Z,10.24
2023-02-19T11:29:42.022Z,10.38
2023-02-19T11:39:46.608Z,10.52
2023-02-19T11:49:54.786Z,10.35
2023-02-19T12:00:04.366Z,10.55
2023-02-19T12:10:13.100Z,10.61
2023-02-19T12:20:23.438Z,10.71
2023-02-19T12:30:32.039Z,10.61
2023-02-19T12:40:39.656Z,10.40
2023-02-19T12:50:43.961Z,10.58
2023-02-19T13:01:01.477Z,10.54
2023-02-19T13:11:18.869Z,10.79
2023-02-19T13:21:37.519Z,12.25
2023-02-19T13:31:52.275Z,12.09
2023-02-19T13:41:57.400Z,11.72
2023-02-19T13:52:01.274Z,11.49
2023-02-19T14:02:11.599Z,11.29
2023-02-19T14:12:21.036Z,11.29
2023-02-19T14:22:41.991Z,10.89
2023-02-19T14:32:51.034Z,10.67
2023-02-19T14:42:57.303Z,10.31
2023-02-19T14:53:04.286Z,10.30
2023-02-19T15:03:07.795Z,10.36
2023-02-19T15:13:17.428Z,10.32
2023-02-19T15:23:22.030Z,10.26
2023-02-19T15:33:27.150Z,10.29
2023-02-19T15:43:32.105Z,10.21
2023-02-19T15:53:42.133Z,10.14
2023-02-19T16:03:45.122Z,10.19
2023-02-19T16:13:52.988Z,10.20
2023-02-19T16:24:02.385Z,10.13
2023-02-19T16:34:18.606Z,9.92
2023-02-19T16:44:31.595Z,9.89
2023-02-19T16:54:35.537Z,9.82
2023-02-19T17:04:38.118Z,9.83
2023-02-19T17:14:42.312Z,9.89
2023-02-19T17:24:45.900Z,9.78
2023-02-19T17:34:49.978Z,9.86
2023-02-19T17:44:53.300Z,9.68
2023-02-19T17:54:57.190Z,9.51
2023-02-19T18:04:59.792Z,9.45
2023-02-19T18:15:03.718Z,9.31
2023-02-19T18:25:06.351Z,9.33
2023-02-19T18:35:10.480Z,9.31
2023-02-19T18:45:12.976Z,9.29
2023-02-19T18:55:16.834Z,9.36
2023-02-19T19:05:22.512Z,9.34
2023-02-19T19:15:26.500Z,9.37
2023-02-19T19:25:28.972Z,9.43
2023-02-19T19:35:32.871Z,9.38
2023-02-19T19:45:35.357Z,9.47
2023-02-19T19:55:39.328Z,9.43
2023-02-19T20:05:41.940Z,9.43
2023-02-19T20:15:46.418Z,9.30
2023-02-19T20:25:48.900Z,9.19
2023-02-19T20:35:52.927Z,9.17
2023-02-19T20:45:55.724Z,9.07
2023-02-19T20:55:59.704Z,8.97
2023-02-19T21:06:02.157Z,9.10
2023-02-19T21:16:06.361Z,9.10
2023-02-19T21:26:08.920Z,9.09
2023-02-19T21:36:13.050Z,9.07
2023-02-19T21:46:18.645Z,9.06
2023-02-19T21:56:23.680Z,9.04
2023-02-19T22:06:28.950Z,8.98
2023-02-19T22:16:33.020Z,9.04
2023-02-19T22:26:37.456Z,9.10
2023-02-19T22:36:41.257Z,9.10
2023-02-19T22:46:47.256Z,8.98
2023-02-19T22:56:51.123Z,9.04
2023-02-19T23:06:53.961Z,8.96
2023-02-19T23:16:57.862Z,8.87
2023-02-19T23:27:03.124Z,8.98
2023-02-19T23:37:07.047Z,8.94
2023-02-19T23:47:09.548Z,8.93
2023-02-19T23:57:14.964Z,8.96
